createdAt,value
2022-10-22T00:00:18.546Z,68.62
2022-10-22T00:02:45.570Z,68.95
2022-10-22T00:05:12.584Z,68.55
2022-10-22T00:07:40.820Z,68.36
2022-10-22T00:10:11.270Z,67.28
2022-10-22T00:12:39.618Z,67.19
2022-10-22T00:15:07.051Z,67.19
2022-10-22T00:17:33.987Z,67.75
2022-10-22T00:20:00.966Z,67.57
2022-10-22T00:22:30.219Z,67.36
2022-10-22T00:24:57.424Z,67.11
2022-10-22T00:27:24.277Z,67.04
2022-10-22T00:29:51.207Z,66.83
2022-10-22T00:32:18.987Z,67.21
2022-10-22T00:34:46.032Z,66.71
2022-10-22T00:37:13.068Z,68.06
2022-10-22T00:39:40.242Z,67.88
2022-10-22T00:42:07.284Z,69.03
2022-10-22T00:45:11.536Z,69.11
2022-10-22T00:47:40.944Z,69.46
2022-10-22T00:50:11.863Z,69.35
2022-10-22T00:52:40.465Z,67.95
2022-10-22T00:55:08.598Z,68.07
2022-10-22T00:57:40.030Z,68.72
2022-10-22T01:00:07.637Z,69.40
2022-10-22T01:02:34.631Z,69.71
2022-10-22T01:05:01.779Z,69.68
2022-10-22T01:07:31.095Z,69.30
2022-10-22T01:10:32.004Z,69.91
2022-10-22T01:13:46.715Z,69.07
2022-10-22T01:16:37.638Z,71.19
2022-10-22T01:19:36.061Z,73.14
2022-10-22T01:22:25.869Z,73.91
2022-10-22T01:25:22.152Z,73.88
2022-10-22T01:28:11.453Z,75.47
2022-10-22T01:30:40.471Z,77.23
2022-10-22T01:33:11.540Z,76.44
2022-10-22T01:35:42.583Z,76.03
2022-10-22T01:38:14.190Z,76.10
2022-10-22T01:40:42.879Z,76.72
2022-10-22T01:43:11.357Z,77.52
2022-10-22T01:45:50.613Z,77.04
2022-10-22T01:48:35.058Z,77.17
2022-10-22T01:51:24.094Z,77.22
2022-10-22T01:53:57.790Z,77.97
2022-10-22T01:56:32.445Z,78.67
2022-10-22T01:59:37.633Z,79.22
2022-10-22T02:02:19.367Z,78.76
2022-10-22T02:04:54.557Z,78.27
2022-10-22T02:07:26.924Z,78.92
2022-10-22T02:09:56.219Z,78.49
2022-10-22T02:12:25.717Z,79.71
2022-10-22T02:14:53.903Z,79.83
2022-10-22T02:17:23.036Z,79.06
2022-10-22T02:20:06.665Z,78.47
2022-10-22T02:22:34.373Z,79.97
2022-10-22T02:25:01.419Z,79.05
2022-10-22T02:28:13.518Z,79.05
2022-10-22T02:30:44.253Z,80.07
2022-10-22T02:33:14.127Z,79.93
2022-10-22T02:35:43.160Z,79.95
2022-10-22T02:38:13.699Z,79.64
2022-10-22T02:40:40.846Z,79.37
2022-10-22T02:43:07.852Z,79.32
2022-10-22T02:45:35.599Z,79.17
2022-10-22T02:48:03.077Z,79.24
2022-10-22T02:50:30.394Z,79.78
2022-10-22T02:52:57.410Z,79.06
2022-10-22T02:55:24.241Z,78.73
2022-10-22T02:57:51.059Z,77.71
2022-10-22T03:00:18.002Z,77.13
2022-10-22T03:02:44.911Z,78.97
2022-10-22T03:05:13.835Z,79.26
2022-10-22T03:07:41.764Z,79.28
2022-10-22T03:10:10.431Z,78.93
2022-10-22T03:12:39.580Z,79.54
2022-10-22T03:15:08.941Z,79.24
2022-10-22T03:17:36.383Z,79.11
2022-10-22T03:20:04.169Z,80.34
2022-10-22T03:22:32.669Z,79.57
2022-10-22T03:25:07.894Z,78.85
2022-10-22T03:27:38.913Z,78.62
2022-10-22T03:30:08.785Z,77.76
2022-10-22T03:32:35.663Z,78.61
2022-10-22T03:35:02.608Z,78.97
2022-10-22T03:37:31.957Z,79.11
2022-10-22T03:39:59.269Z,80.52
2022-10-22T03:42:26.343Z,80.08
2022-10-22T03:44:53.489Z,80.32
2022-10-22T03:47:20.386Z,80.79
2022-10-22T03:49:47.186Z,81.58
2022-10-22T03:52:15.205Z,81.44
2022-10-22T03:54:42.754Z,82.05
2022-10-22T03:57:10.401Z,82.34
2022-10-22T03:59:47.825Z,82.11
2022-10-22T04:02:14.833Z,81.60
2022-10-22T04:04:41.668Z,82.03
2022-10-22T04:07:09.353Z,81.37
2022-10-22T04:09:36.313Z,80.92
2022-10-22T04:12:05.572Z,81.35
2022-10-22T04:14:32.563Z,81.71
2022-10-22T04:16:59.555Z,82.06
2022-10-22T04:19:26.639Z,82.14
2022-10-22T04:21:53.476Z,82.03
2022-10-22T04:24:20.532Z,82.71
2022-10-22T04:26:47.766Z,83.56
2022-10-22T04:29:16.211Z,82.64
2022-10-22T04:31:43.735Z,82.10
2022-10-22T04:34:10.688Z,83.17
2022-10-22T04:36:38.089Z,82.46
2022-10-22T04:39:05.973Z,82.65
2022-10-22T04:41:37.306Z,82.50
2022-10-22T04:44:05.426Z,82.61
2022-10-22T04:46:37.338Z,81.82
2022-10-22T04:49:04.907Z,81.42
2022-10-22T04:51:33.834Z,79.79
2022-10-22T04:54:00.733Z,79.19
2022-10-22T04:56:30.391Z,77.97
2022-10-22T04:58:58.225Z,77.34
2022-10-22T05:01:28.473Z,78.05
2022-10-22T05:03:58.115Z,79.03
2022-10-22T05:06:26.393Z,79.45
2022-10-22T05:08:57.420Z,79.24
2022-10-22T05:11:28.673Z,80.32
2022-10-22T05:13:57.506Z,80.50
2022-10-22T05:16:25.376Z,80.43
2022-10-22T05:18:54.020Z,80.12
2022-10-22T05:21:21.875Z,78.44
2022-10-22T05:23:50.631Z,78.03
2022-10-22T05:26:21.913Z,78.29
2022-10-22T05:28:50.530Z,76.24
2022-10-22T05:31:18.602Z,75.59
2022-10-22T05:33:48.275Z,75.05
2022-10-22T05:36:25.545Z,74.61
2022-10-22T05:38:54.117Z,74.65
2022-10-22T05:41:24.475Z,74.13
2022-10-22T05:43:54.266Z,73.73
2022-10-22T05:46:23.242Z,73.66
2022-10-22T05:48:52.049Z,74.83
2022-10-22T05:51:20.112Z,74.83
2022-10-22T05:53:54.587Z,73.68
2022-10-22T05:56:22.787Z,73.58
2022-10-22T05:58:50.407Z,73.35
2022-10-22T06:01:21.414Z,72.41
2022-10-22T06:03:58.456Z,71.76
2022-10-22T06:06:47.630Z,71.04
2022-10-22T06:09:25.235Z,70.04
2022-10-22T06:11:54.269Z,70.01
2022-10-22T06:14:22.444Z,70.00
2022-10-22T06:16:50.781Z,69.88
2022-10-22T06:19:21.408Z,68.53
2022-10-22T06:21:51.875Z,69.18
2022-10-22T06:24:19.313Z,68.25
2022-10-22T06:26:51.285Z,67.94
2022-10-22T06:29:20.745Z,68.02
2022-10-22T06:31:48.575Z,67.49
2022-10-22T06:34:20.862Z,66.93
2022-10-22T06:36:48.316Z,67.14
2022-10-22T06:39:20.822Z,66.78
2022-10-22T06:41:54.418Z,66.50
2022-10-22T06:44:21.981Z,66.16
2022-10-22T06:46:54.271Z,65.59
2022-10-22T06:52:04.561Z,64.45
2022-10-22T06:54:37.587Z,63.95
2022-10-22T09:59:48.051Z,54.39
2022-10-22T10:02:37.400Z,52.43
2022-10-22T10:05:07.268Z,51.12
2022-10-22T10:07:36.018Z,50.92
2022-10-22T10:10:03.848Z,50.63
2022-10-22T10:12:57.556Z,50.50
2022-10-22T10:15:29.561Z,50.83
2022-10-22T10:18:18.984Z,50.54
2022-10-22T10:24:11.723Z,49.29
2022-10-22T10:26:55.188Z,48.67
2022-10-22T10:29:52.561Z,48.58
2022-10-22T10:32:41.456Z,49.23
2022-10-22T10:35:29.857Z,49.06
2022-10-22T10:38:23.546Z,48.81
2022-10-22T10:41:25.378Z,48.10
2022-10-22T10:44:17.394Z,47.88
2022-10-22T10:47:01.097Z,47.23
2022-10-22T10:49:33.204Z,46.31
2022-10-22T10:52:02.773Z,47.11
2022-10-22T10:55:09.646Z,46.45
2022-10-22T10:57:50.449Z,45.93
2022-10-22T11:00:23.043Z,45.87
2022-10-22T11:03:36.481Z,45.50
2022-10-22T11:06:09.889Z,45.45
2022-10-22T11:08:59.963Z,45.16
2022-10-22T11:11:42.048Z,44.98
2022-10-22T11:14:25.252Z,45.07
2022-10-22T11:17:02.234Z,44.58
2022-10-22T11:19:51.242Z,44.13
2022-10-22T11:22:28.844Z,44.26
2022-10-22T11:25:03.595Z,44.31
2022-10-22T11:27:48.818Z,44.06
2022-10-22T11:30:23.423Z,44.65
2022-10-22T11:32:55.189Z,44.97
2022-10-22T11:35:42.580Z,44.54
2022-10-22T11:38:36.844Z,44.42
2022-10-22T11:41:16.051Z,44.44
2022-10-22T11:44:13.413Z,45.25
2022-10-22T11:46:47.631Z,45.69
2022-10-22T11:49:14.754Z,45.27
2022-10-22T11:51:47.159Z,45.45
2022-10-22T11:54:43.245Z,45.54
2022-10-22T11:57:19.748Z,45.46
2022-10-22T12:00:00.875Z,45.44
2022-10-22T12:02:45.564Z,45.70
2022-10-22T12:05:32.916Z,45.41
2022-10-22T12:08:06.605Z,45.68
2022-10-22T12:10:48.594Z,45.82
2022-10-22T12:13:24.063Z,45.78
2022-10-22T12:15:54.926Z,45.75
2022-10-22T12:18:27.631Z,45.33
2022-10-22T12:20:55.448Z,45.19
2022-10-22T12:23:32.219Z,45.14
2022-10-22T12:26:00.565Z,45.37
2022-10-22T12:28:27.494Z,45.21
2022-10-22T12:30:54.392Z,44.90
2022-10-22T12:33:25.641Z,45.22
2022-10-22T12:35:57.679Z,45.26
2022-10-22T12:38:25.779Z,44.98
2022-10-22T12:40:58.267Z,45.13
2022-10-22T12:43:28.971Z,45.39
2022-10-22T12:46:02.075Z,44.97
2022-10-22T12:48:34.450Z,44.79
2022-10-22T12:51:04.137Z,45.20
2022-10-22T12:53:38.183Z,45.24
2022-10-22T12:56:10.957Z,44.87
2022-10-22T12:58:44.110Z,44.99
2022-10-22T13:01:13.465Z,44.79
2022-10-22T13:03:48.178Z,44.67
2022-10-22T13:06:25.697Z,45.05
2022-10-22T13:09:03.854Z,45.24
2022-10-22T13:11:39.113Z,45.12
2022-10-22T13:14:25.676Z,45.55
2022-10-22T13:17:08.308Z,45.40
2022-10-22T13:19:43.663Z,45.23
2022-10-22T13:22:37.760Z,45.25
2022-10-22T13:25:18.972Z,45.33
2022-10-22T13:27:52.325Z,45.48
2022-10-22T13:30:26.857Z,45.44
2022-10-22T13:33:06.050Z,45.60
2022-10-22T13:35:36.013Z,45.59
2022-10-22T13:38:03.881Z,45.31
2022-10-22T13:40:31.369Z,45.17
2022-10-22T13:42:58.831Z,45.43
2022-10-22T13:45:25.798Z,45.02
2022-10-22T13:47:55.123Z,45.11
2022-10-22T13:50:22.194Z,45.66
2022-10-22T13:52:55.368Z,45.11
2022-10-22T13:55:29.134Z,45.06
2022-10-22T13:58:14.008Z,45.31
2022-10-22T14:00:46.720Z,44.87
2022-10-22T14:03:17.520Z,45.00
2022-10-22T14:05:47.429Z,44.94
2022-10-22T14:08:21.254Z,44.93
2022-10-22T14:10:49.741Z,44.73
2022-10-22T14:13:18.126Z,44.72
2022-10-22T14:15:49.333Z,45.71
2022-10-22T14:18:25.529Z,45.14
2022-10-22T14:20:55.863Z,45.13
2022-10-22T14:23:27.496Z,44.92
2022-10-22T14:25:54.591Z,44.91
2022-10-22T14:28:21.628Z,45.20
2022-10-22T14:30:49.137Z,45.63
2022-10-22T14:33:22.571Z,45.68
2022-10-22T14:35:52.072Z,45.59
2022-10-22T14:38:20.333Z,45.57
2022-10-22T14:40:48.102Z,45.87
2022-10-22T14:43:27.112Z,46.76
2022-10-22T14:52:37.222Z,46.64
2022-10-22T14:55:05.646Z,46.84
2022-10-22T14:57:34.303Z,47.38
2022-10-22T15:00:02.059Z,48.05
2022-10-22T15:02:30.401Z,47.95
2022-10-22T15:07:25.329Z,48.68
2022-10-22T15:09:52.380Z,50.22
2022-10-22T15:12:20.722Z,51.17
2022-10-22T15:14:48.391Z,51.24
2022-10-22T15:17:16.959Z,50.92
2022-10-22T15:19:44.428Z,52.08
2022-10-22T15:22:14.099Z,52.22
2022-10-22T15:24:45.461Z,52.04
2022-10-22T15:27:15.535Z,51.13
2022-10-22T15:29:42.891Z,51.17
2022-10-22T15:32:13.083Z,50.87
2022-10-22T15:34:41.189Z,54.15
2022-10-22T15:37:12.311Z,52.25
2022-10-22T15:39:42.034Z,53.28
2022-10-22T15:42:10.559Z,53.09
2022-10-22T15:44:39.890Z,53.12
2022-10-22T15:47:07.916Z,53.00
2022-10-22T15:49:37.276Z,53.02
2022-10-22T15:52:06.351Z,53.76
2022-10-22T15:54:33.659Z,52.94
2022-10-22T15:57:08.466Z,52.91
2022-10-22T15:59:36.056Z,53.05
2022-10-22T16:02:03.131Z,52.74
2022-10-22T16:04:30.836Z,52.88
2022-10-22T16:06:58.031Z,52.53
2022-10-22T16:09:27.995Z,52.77
2022-10-22T16:11:55.867Z,52.49
2022-10-22T16:14:24.133Z,52.82
2022-10-22T16:16:56.281Z,53.07
2022-10-22T16:19:24.685Z,52.76
2022-10-22T16:21:54.349Z,52.53
2022-10-22T16:24:21.753Z,52.89
2022-10-22T16:26:49.257Z,54.14
2022-10-22T16:29:16.789Z,55.85
2022-10-22T16:31:45.521Z,56.61
2022-10-22T16:34:12.973Z,57.30
2022-10-22T16:36:39.937Z,57.48
2022-10-22T16:39:07.161Z,57.95
2022-10-22T16:41:35.715Z,57.09
2022-10-22T16:44:06.005Z,56.78
2022-10-22T16:46:36.708Z,57.37
2022-10-22T16:49:07.789Z,57.16
2022-10-22T16:51:35.538Z,58.00
2022-10-22T16:54:08.192Z,58.39
2022-10-22T16:56:39.500Z,58.35
2022-10-22T16:59:08.810Z,58.33
2022-10-22T17:01:40.602Z,57.96
2022-10-22T17:04:08.330Z,58.19
2022-10-22T17:06:35.644Z,57.86
2022-10-22T17:09:02.893Z,57.88
2022-10-22T17:11:35.134Z,58.25
2022-10-22T17:14:04.561Z,58.79
2022-10-22T17:16:31.652Z,58.80
2022-10-22T17:18:58.631Z,58.92
2022-10-22T17:21:25.640Z,59.31
2022-10-22T17:23:57.100Z,59.59
2022-10-22T17:26:26.582Z,59.37
2022-10-22T17:28:54.904Z,59.10
2022-10-22T17:31:23.163Z,58.98
2022-10-22T17:33:52.958Z,59.54
2022-10-22T17:36:21.900Z,60.18
2022-10-22T17:38:52.518Z,59.33
2022-10-22T17:41:26.805Z,59.34
2022-10-22T17:43:56.391Z,60.41
2022-10-22T17:46:29.060Z,59.61
2022-10-22T17:49:00.481Z,60.10
2022-10-22T17:51:28.812Z,60.21
2022-10-22T17:53:58.782Z,59.97
2022-10-22T17:56:28.051Z,59.61
2022-10-22T17:58:56.577Z,59.91
2022-10-22T18:01:25.267Z,60.41
2022-10-22T18:03:54.004Z,60.46
2022-10-22T18:06:22.044Z,60.85
2022-10-22T18:08:49.587Z,60.45
2022-10-22T18:11:19.786Z,60.80
2022-10-22T18:13:51.450Z,60.86
2022-10-22T18:16:18.751Z,60.99
2022-10-22T18:18:50.374Z,61.47
2022-10-22T18:21:19.200Z,61.41
2022-10-22T18:23:47.398Z,61.29
2022-10-22T18:26:15.811Z,61.71
2022-10-22T18:28:43.784Z,61.20
2022-10-22T18:31:13.863Z,61.49
2022-10-22T18:33:40.896Z,61.04
2022-10-22T18:36:10.475Z,60.75
2022-10-22T18:38:40.807Z,61.84
2022-10-22T18:41:09.818Z,61.61
2022-10-22T18:43:37.207Z,61.48
2022-10-22T18:46:07.193Z,61.48
2022-10-22T18:48:35.385Z,61.97
2022-10-22T18:51:08.784Z,61.56
2022-10-22T18:53:40.295Z,62.06
2022-10-22T18:56:12.188Z,62.15
2022-10-22T18:58:42.693Z,62.26
2022-10-22T19:01:34.049Z,61.28
2022-10-22T19:04:01.571Z,62.44
2022-10-22T19:06:37.616Z,61.75
2022-10-22T19:09:05.469Z,62.76
2022-10-22T19:11:32.572Z,62.68
2022-10-22T19:13:59.603Z,63.51
2022-10-22T19:16:27.249Z,63.09
2022-10-22T19:19:05.226Z,63.25
2022-10-22T19:21:33.417Z,63.27
2022-10-22T19:24:01.291Z,64.44
2022-10-22T19:26:30.267Z,63.95
2022-10-22T19:29:00.129Z,64.57
2022-10-22T19:31:32.834Z,64.71
2022-10-22T19:34:01.397Z,65.17
2022-10-22T19:36:30.276Z,65.90
2022-10-22T19:38:59.000Z,66.09
2022-10-22T19:41:28.645Z,65.46
2022-10-22T19:43:57.766Z,65.65
2022-10-22T19:46:26.382Z,65.66
2022-10-22T19:48:54.274Z,65.04
2022-10-22T19:51:23.420Z,66.17
2022-10-22T19:53:51.144Z,66.41
2022-10-22T19:56:20.310Z,67.15
2022-10-22T19:58:47.783Z,66.79
2022-10-22T20:01:17.219Z,66.64
2022-10-22T20:03:45.529Z,66.68
2022-10-22T20:06:15.944Z,67.36
2022-10-22T20:08:45.340Z,67.05
2022-10-22T20:11:18.620Z,67.48
2022-10-22T20:13:49.605Z,67.51
2022-10-22T20:16:23.252Z,67.49
2022-10-22T20:18:51.984Z,67.05
2022-10-22T20:21:21.168Z,67.57
2022-10-22T20:23:53.131Z,67.38
2022-10-22T20:26:21.385Z,67.04
2022-10-22T20:28:48.447Z,67.53
2022-10-22T20:31:22.018Z,67.70
2022-10-22T20:33:50.604Z,67.07
2022-10-22T20:36:23.857Z,66.96
2022-10-22T20:38:51.489Z,66.52
2022-10-22T20:41:21.192Z,66.23
2022-10-22T20:43:51.073Z,65.64
2022-10-22T20:46:23.520Z,65.91
2022-10-22T20:48:58.454Z,65.37
2022-10-22T20:51:25.490Z,65.37
2022-10-22T20:53:52.389Z,65.10
2022-10-22T20:56:20.137Z,64.78
2022-10-22T20:58:48.846Z,64.97
2022-10-22T21:01:21.922Z,65.14
2022-10-22T21:03:50.764Z,65.71
2022-10-22T21:06:21.016Z,65.44
2022-10-22T21:08:48.029Z,65.71
2022-10-22T21:11:15.899Z,66.43
2022-10-22T21:13:44.527Z,66.06
2022-10-22T21:16:13.662Z,66.24
2022-10-22T21:18:40.825Z,65.98
2022-10-22T21:21:09.823Z,65.71
2022-10-22T21:23:36.863Z,65.69
2022-10-22T21:26:04.647Z,66.60
2022-10-22T21:28:35.682Z,67.28
2022-10-22T21:31:07.898Z,68.01
2022-10-22T21:33:42.528Z,69.54
2022-10-22T21:36:10.183Z,70.10
2022-10-22T21:38:38.313Z,70.21
2022-10-22T21:41:11.195Z,70.99
2022-10-22T21:43:41.277Z,70.98
2022-10-22T21:46:12.903Z,70.83
2022-10-22T21:48:40.730Z,70.92
2022-10-22T21:51:09.881Z,71.76
2022-10-22T21:53:36.919Z,71.61
2022-10-22T21:56:04.835Z,71.68
2022-10-22T21:58:34.344Z,71.36
2022-10-22T22:01:01.324Z,71.02
2022-10-22T22:03:28.607Z,70.97
2022-10-22T22:06:05.604Z,70.88
2022-10-22T22:08:33.550Z,70.91
2022-10-22T22:11:06.432Z,70.43
2022-10-22T22:13:34.912Z,69.96
2022-10-22T22:16:12.976Z,69.43
2022-10-22T22:18:41.050Z,69.46
2022-10-22T22:21:11.775Z,68.71
2022-10-22T22:23:42.011Z,69.32
2022-10-22T22:26:10.238Z,68.80
2022-10-22T22:28:37.329Z,68.60
2022-10-22T22:31:21.915Z,68.22
2022-10-22T22:33:48.822Z,68.23
2022-10-22T22:36:16.732Z,68.33
2022-10-22T22:38:43.715Z,67.91
2022-10-22T22:41:10.749Z,68.14
2022-10-22T22:43:37.877Z,68.09
2022-10-22T22:46:11.753Z,68.19
2022-10-22T22:48:38.961Z,69.05
2022-10-22T22:51:07.379Z,69.33
2022-10-22T22:53:35.161Z,69.41
2022-10-22T22:56:06.829Z,69.33
2022-10-22T22:58:36.921Z,69.49
2022-10-22T23:01:13.330Z,70.06
2022-10-22T23:03:40.381Z,71.17
2022-10-22T23:06:07.803Z,71.04
2022-10-22T23:08:35.294Z,70.63
2022-10-22T23:11:04.374Z,69.92
2022-10-22T23:13:31.515Z,69.94
2022-10-22T23:16:00.072Z,70.02
2022-10-22T23:18:27.070Z,69.80
2022-10-22T23:20:54.037Z,70.22
2022-10-22T23:23:21.654Z,70.08
2022-10-22T23:25:48.733Z,69.80
2022-10-22T23:28:16.031Z,70.54
2022-10-22T23:30:45.235Z,70.91
2022-10-22T23:33:12.519Z,70.88
2022-10-22T23:35:41.950Z,70.38
2022-10-22T23:38:09.028Z,69.86
2022-10-22T23:40:36.322Z,69.78
2022-10-22T23:43:04.849Z,69.86
2022-10-22T23:45:34.451Z,69.87
2022-10-22T23:48:02.469Z,69.54
2022-10-22T23:50:29.940Z,69.51
2022-10-22T23:52:58.897Z,69.98
2022-10-22T23:55:25.768Z,70.29
2022-10-22T23:57:52.661Z,69.83
